Terminal Aerodrome Forecast
Issued by NWS Sterling, VA

Current Version | Previous Version | Text Only | Print | Product List | Glossary Off
Versions: 1 2 3 4 5 6 7 8 9 10 11 12 13 14 15 16 17 18 19 20 21 22 23

786
FTUS41 KLWX 040541 RRA
TAFMRB
TAF
KMRB 040541Z 0406/0506 VRB03KT 2SM BR OVC008
     FM041200 VRB03KT 2SM -RA OVC003
     FM041600 VRB03KT 5SM -RA OVC008
     FM041900 09004KT P6SM -RA BKN015
     FM042200 09005KT P6SM -RA OVC015
     FM050300 VRB03KT 3SM -SHRA OVC003=

USA.gov is the U.S. government's official web portal to all federal, state and local government web resources and services.